This is the latest recevied weather packets stored in our database for station/object W1CAT. If no packets are shown the sender has not sent any weather packets the latest 10 day(s).
| Time | Temp. | Humidity | Pressure | Rain* | Wind** | Luminosity | Snow |
|---|---|---|---|---|---|---|---|
| 1778030130 | 6.11° C | 61% | - | 0 mm | - | - | - |
| 1778029826 | 6.11° C | 61% | - | 0 mm | - | - | - |
| 1778029525 | 6.67° C | 60% | - | 0 mm | - | - | - |
| 1778029221 | 7.22° C | 59% | - | 0 mm | - | - | - |
| 1778028919 | 7.78° C | 56% | - | 0 mm | - | - | - |
| 1778028614 | 8.33° C | 54% | - | 0 mm | - | - | - |
| 1778028312 | 8.33° C | 55% | - | 0 mm | - | - | - |
| 1778028008 | 10° C | 52% | - | 0 mm | - | - | - |
| 1778027705 | 11.11° C | 48% | - | 0 mm | - | - | - |
| 1778027401 | 13.33° C | 31% | - | 0 mm | - | - | - |
| 1778027097 | 13.33° C | 30% | - | 0 mm | - | - | - |
| 1778026793 | 13.33° C | 31% | - | 0 mm | - | - | - |
| 1778026489 | 15° C | 31% | - | 0 mm | - | - | - |
| 1778026187 | 16.11° C | 28% | - | 0 mm | - | - | - |
| 1778025884 | 16.11° C | 32% | - | 0 mm | - | - | - |
| 1778025581 | 15° C | 34% | - | 0 mm | - | - | - |
| 1778025279 | 13.89° C | 37% | - | 0 mm | - | - | - |
| 1778024976 | 13.33° C | 38% | - | 0 mm | - | - | - |
| 1778024673 | 12.78° C | 41% | - | 0 mm | - | - | - |
| 1778024370 | 11.67° C | 43% | - | 0 mm | - | - | - |
| 1778024068 | 12.22° C | 45% | - | 0 mm | - | - | - |
| 1778023765 | 11.67° C | 44% | - | 0 mm | - | - | - |
| 1778023463 | 11.67° C | 46% | - | 0 mm | - | - | - |
| 1778023159 | 11.67° C | 46% | - | 0 mm | - | - | - |
| 1778022857 | 11.11° C | 49% | - | 0 mm | - | - | - |
* Rain latest hour (hover to see other rain measurements)
** Current wind speed in m/s (hover to see current wind gust speed)